sensor_id;sensor_type;location;lat;lon;timestamp;P1;durP1;ratioP1;P2;durP2;ratioP2
7515;SDS011;3799;47.184;8.538;2023-03-01T00:01:38;20.63;;;9.48;;
7515;SDS011;3799;47.184;8.538;2023-03-01T00:04:05;18.52;;;8.65;;
7515;SDS011;3799;47.184;8.538;2023-03-01T00:06:32;18.88;;;8.70;;
7515;SDS011;3799;47.184;8.538;2023-03-01T00:09:03;21.02;;;9.65;;
7515;SDS011;3799;47.184;8.538;2023-03-01T00:11:31;21.50;;;9.65;;
7515;SDS011;3799;47.184;8.538;2023-03-01T00:14:00;20.10;;;9.55;;
7515;SDS011;3799;47.184;8.538;2023-03-01T00:16:30;19.88;;;9.60;;
7515;SDS011;3799;47.184;8.538;2023-03-01T00:19:02;18.92;;;9.00;;
7515;SDS011;3799;47.184;8.538;2023-03-01T00:21:29;19.73;;;8.82;;
7515;SDS011;3799;47.184;8.538;2023-03-01T00:23:57;18.33;;;9.02;;
7515;SDS011;3799;47.184;8.538;2023-03-01T00:26:25;21.48;;;9.15;;
7515;SDS011;3799;47.184;8.538;2023-03-01T00:28:53;19.90;;;9.27;;
7515;SDS011;3799;47.184;8.538;2023-03-01T00:31:22;18.63;;;9.68;;
7515;SDS011;3799;47.184;8.538;2023-03-01T00:33:54;17.80;;;8.93;;
7515;SDS011;3799;47.184;8.538;2023-03-01T00:36:24;17.02;;;8.35;;
7515;SDS011;3799;47.184;8.538;2023-03-01T00:38:53;19.27;;;9.43;;
7515;SDS011;3799;47.184;8.538;2023-03-01T00:41:21;18.95;;;8.32;;
7515;SDS011;3799;47.184;8.538;2023-03-01T00:43:49;19.45;;;9.07;;
7515;SDS011;3799;47.184;8.538;2023-03-01T00:46:20;19.05;;;8.57;;
7515;SDS011;3799;47.184;8.538;2023-03-01T00:48:49;17.73;;;7.80;;
7515;SDS011;3799;47.184;8.538;2023-03-01T00:51:17;20.45;;;8.68;;
7515;SDS011;3799;47.184;8.538;2023-03-01T00:53:51;17.40;;;8.30;;
7515;SDS011;3799;47.184;8.538;2023-03-01T00:56:19;16.15;;;8.25;;
7515;SDS011;3799;47.184;8.538;2023-03-01T00:58:47;20.48;;;8.95;;
7515;SDS011;3799;47.184;8.538;2023-03-01T01:01:21;18.98;;;9.02;;
7515;SDS011;3799;47.184;8.538;2023-03-01T01:03:52;21.58;;;9.82;;
7515;SDS011;3799;47.184;8.538;2023-03-01T01:06:23;21.13;;;10.02;;
7515;SDS011;3799;47.184;8.538;2023-03-01T01:09:02;19.15;;;9.05;;
7515;SDS011;3799;47.184;8.538;2023-03-01T01:11:32;18.45;;;8.32;;
7515;SDS011;3799;47.184;8.538;2023-03-01T01:14:01;18.48;;;8.50;;
7515;SDS011;3799;47.184;8.538;2023-03-01T01:16:29;19.90;;;8.77;;
7515;SDS011;3799;47.184;8.538;2023-03-01T01:18:57;21.10;;;10.23;;
7515;SDS011;3799;47.184;8.538;2023-03-01T01:21:25;21.33;;;9.02;;
7515;SDS011;3799;47.184;8.538;2023-03-01T01:23:53;17.25;;;8.55;;
7515;SDS011;3799;47.184;8.538;2023-03-01T01:26:22;20.45;;;9.45;;
7515;SDS011;3799;47.184;8.538;2023-03-01T01:28:52;21.83;;;9.60;;
7515;SDS011;3799;47.184;8.538;2023-03-01T01:31:19;18.35;;;9.07;;
7515;SDS011;3799;47.184;8.538;2023-03-01T01:33:54;19.20;;;10.20;;
7515;SDS011;3799;47.184;8.538;2023-03-01T01:36:22;21.38;;;8.90;;
7515;SDS011;3799;47.184;8.538;2023-03-01T01:38:50;19.45;;;8.73;;
7515;SDS011;3799;47.184;8.538;2023-03-01T01:41:18;20.65;;;9.25;;
7515;SDS011;3799;47.184;8.538;2023-03-01T01:43:47;21.17;;;8.18;;
7515;SDS011;3799;47.184;8.538;2023-03-01T01:49:10;19.10;;;9.25;;
7515;SDS011;3799;47.184;8.538;2023-03-01T01:51:47;18.70;;;9.20;;
7515;SDS011;3799;47.184;8.538;2023-03-01T01:54:20;19.50;;;9.32;;
7515;SDS011;3799;47.184;8.538;2023-03-01T01:56:53;18.00;;;8.50;;
7515;SDS011;3799;47.184;8.538;2023-03-01T01:59:23;20.05;;;9.23;;
7515;SDS011;3799;47.184;8.538;2023-03-01T02:01:52;22.23;;;9.70;;
7515;SDS011;3799;47.184;8.538;2023-03-01T02:04:20;18.83;;;9.13;;
7515;SDS011;3799;47.184;8.538;2023-03-01T02:06:49;25.83;;;10.10;;
7515;SDS011;3799;47.184;8.538;2023-03-01T02:09:23;21.02;;;9.40;;
7515;SDS011;3799;47.184;8.538;2023-03-01T02:11:51;23.48;;;10.98;;
7515;SDS011;3799;47.184;8.538;2023-03-01T02:14:22;19.90;;;9.40;;
7515;SDS011;3799;47.184;8.538;2023-03-01T02:16:49;23.80;;;9.73;;
7515;SDS011;3799;47.184;8.538;2023-03-01T02:19:25;23.17;;;9.73;;
7515;SDS011;3799;47.184;8.538;2023-03-01T02:22:38;18.10;;;8.32;;
7515;SDS011;3799;47.184;8.538;2023-03-01T02:27:57;20.77;;;9.25;;
7515;SDS011;3799;47.184;8.538;2023-03-01T02:30:25;18.63;;;9.10;;
7515;SDS011;3799;47.184;8.538;2023-03-01T02:32:53;22.25;;;9.77;;
7515;SDS011;3799;47.184;8.538;2023-03-01T02:35:33;20.08;;;9.40;;
7515;SDS011;3799;47.184;8.538;2023-03-01T02:38:06;18.92;;;10.20;;
7515;SDS011;3799;47.184;8.538;2023-03-01T02:40:35;20.98;;;10.60;;
7515;SDS011;3799;47.184;8.538;2023-03-01T02:43:04;20.75;;;9.65;;
7515;SDS011;3799;47.184;8.538;2023-03-01T02:45:36;22.10;;;10.65;;
7515;SDS011;3799;47.184;8.538;2023-03-01T02:48:06;20.45;;;9.90;;
7515;SDS011;3799;47.184;8.538;2023-03-01T02:50:45;21.98;;;9.55;;
7515;SDS011;3799;47.184;8.538;2023-03-01T02:56:09;20.23;;;9.48;;
7515;SDS011;3799;47.184;8.538;2023-03-01T02:58:42;22.95;;;11.02;;
7515;SDS011;3799;47.184;8.538;2023-03-01T03:01:18;16.48;;;8.10;;
7515;SDS011;3799;47.184;8.538;2023-03-01T03:03:47;23.42;;;9.98;;
7515;SDS011;3799;47.184;8.538;2023-03-01T03:06:14;23.70;;;10.00;;
7515;SDS011;3799;47.184;8.538;2023-03-01T03:08:41;20.42;;;8.70;;
7515;SDS011;3799;47.184;8.538;2023-03-01T03:11:10;20.08;;;9.45;;
7515;SDS011;3799;47.184;8.538;2023-03-01T03:13:37;20.27;;;10.05;;
7515;SDS011;3799;47.184;8.538;2023-03-01T03:16:15;19.35;;;9.35;;
7515;SDS011;3799;47.184;8.538;2023-03-01T03:18:42;22.48;;;9.45;;
7515;SDS011;3799;47.184;8.538;2023-03-01T03:21:11;24.92;;;9.93;;
7515;SDS011;3799;47.184;8.538;2023-03-01T03:23:39;22.33;;;9.82;;
7515;SDS011;3799;47.184;8.538;2023-03-01T03:26:06;23.70;;;10.20;;
7515;SDS011;3799;47.184;8.538;2023-03-01T03:28:35;19.38;;;9.50;;
7515;SDS011;3799;47.184;8.538;2023-03-01T03:31:06;17.20;;;7.63;;
7515;SDS011;3799;47.184;8.538;2023-03-01T03:33:35;21.25;;;10.10;;
7515;SDS011;3799;47.184;8.538;2023-03-01T03:36:03;22.98;;;10.05;;
7515;SDS011;3799;47.184;8.538;2023-03-01T03:38:31;23.90;;;10.60;;
7515;SDS011;3799;47.184;8.538;2023-03-01T03:41:00;25.25;;;11.43;;
7515;SDS011;3799;47.184;8.538;2023-03-01T03:43:31;22.77;;;9.50;;
7515;SDS011;3799;47.184;8.538;2023-03-01T03:45:59;27.95;;;11.32;;
7515;SDS011;3799;47.184;8.538;2023-03-01T03:48:42;22.65;;;11.20;;
7515;SDS011;3799;47.184;8.538;2023-03-01T03:51:11;24.67;;;10.35;;
7515;SDS011;3799;47.184;8.538;2023-03-01T03:53:41;22.80;;;9.65;;
7515;SDS011;3799;47.184;8.538;2023-03-01T03:56:09;23.98;;;9.35;;
7515;SDS011;3799;47.184;8.538;2023-03-01T03:58:37;24.23;;;11.00;;
7515;SDS011;3799;47.184;8.538;2023-03-01T04:01:04;22.30;;;9.85;;
7515;SDS011;3799;47.184;8.538;2023-03-01T04:03:31;21.50;;;9.77;;
7515;SDS011;3799;47.184;8.538;2023-03-01T04:05:59;20.08;;;9.07;;
7515;SDS011;3799;47.184;8.538;2023-03-01T04:08:27;23.92;;;10.20;;
7515;SDS011;3799;47.184;8.538;2023-03-01T04:11:00;23.73;;;10.02;;
7515;SDS011;3799;47.184;8.538;2023-03-01T04:13:48;22.92;;;11.20;;
7515;SDS011;3799;47.184;8.538;2023-03-01T04:16:16;26.27;;;10.68;;
7515;SDS011;3799;47.184;8.538;2023-03-01T04:18:44;23.42;;;10.88;;
7515;SDS011;3799;47.184;8.538;2023-03-01T04:21:11;25.48;;;10.85;;
7515;SDS011;3799;47.184;8.538;2023-03-01T04:23:38;24.35;;;11.02;;
7515;SDS011;3799;47.184;8.538;2023-03-01T04:26:07;24.85;;;9.70;;
7515;SDS011;3799;47.184;8.538;2023-03-01T04:28:38;25.58;;;10.68;;
7515;SDS011;3799;47.184;8.538;2023-03-01T04:31:10;29.80;;;11.77;;
7515;SDS011;3799;47.184;8.538;2023-03-01T04:33:52;22.83;;;11.30;;
7515;SDS011;3799;47.184;8.538;2023-03-01T04:36:22;21.58;;;10.52;;
7515;SDS011;3799;47.184;8.538;2023-03-01T04:38:52;22.63;;;10.13;;
7515;SDS011;3799;47.184;8.538;2023-03-01T04:41:20;23.55;;;9.75;;
7515;SDS011;3799;47.184;8.538;2023-03-01T04:43:49;24.38;;;10.60;;
7515;SDS011;3799;47.184;8.538;2023-03-01T04:46:17;28.48;;;11.45;;
7515;SDS011;3799;47.184;8.538;2023-03-01T04:48:47;24.50;;;10.48;;
7515;SDS011;3799;47.184;8.538;2023-03-01T04:51:14;22.77;;;10.95;;
7515;SDS011;3799;47.184;8.538;2023-03-01T04:53:42;22.52;;;11.73;;
7515;SDS011;3799;47.184;8.538;2023-03-01T04:56:10;24.27;;;12.30;;
7515;SDS011;3799;47.184;8.538;2023-03-01T04:58:38;24.98;;;10.80;;
7515;SDS011;3799;47.184;8.538;2023-03-01T05:01:09;26.27;;;10.40;;
7515;SDS011;3799;47.184;8.538;2023-03-01T05:03:42;23.83;;;11.50;;
7515;SDS011;3799;47.184;8.538;2023-03-01T05:06:10;25.92;;;11.75;;
7515;SDS011;3799;47.184;8.538;2023-03-01T05:08:38;25.95;;;11.02;;
7515;SDS011;3799;47.184;8.538;2023-03-01T05:11:07;22.23;;;11.23;;
7515;SDS011;3799;47.184;8.538;2023-03-01T05:13:37;23.13;;;10.80;;
7515;SDS011;3799;47.184;8.538;2023-03-01T05:16:05;23.67;;;11.82;;
7515;SDS011;3799;47.184;8.538;2023-03-01T05:18:38;22.13;;;10.15;;
7515;SDS011;3799;47.184;8.538;2023-03-01T05:21:07;26.73;;;12.25;;
7515;SDS011;3799;47.184;8.538;2023-03-01T05:23:36;22.75;;;10.45;;
7515;SDS011;3799;47.184;8.538;2023-03-01T05:26:04;21.83;;;10.00;;
7515;SDS011;3799;47.184;8.538;2023-03-01T05:28:36;21.35;;;10.27;;
7515;SDS011;3799;47.184;8.538;2023-03-01T05:31:05;22.27;;;9.68;;
7515;SDS011;3799;47.184;8.538;2023-03-01T05:33:40;27.30;;;10.90;;
7515;SDS011;3799;47.184;8.538;2023-03-01T05:36:08;20.92;;;11.13;;
7515;SDS011;3799;47.184;8.538;2023-03-01T05:38:36;24.10;;;11.32;;
7515;SDS011;3799;47.184;8.538;2023-03-01T05:41:04;26.88;;;11.48;;
7515;SDS011;3799;47.184;8.538;2023-03-01T05:43:31;24.75;;;11.63;;
7515;SDS011;3799;47.184;8.538;2023-03-01T05:46:00;21.75;;;10.93;;
7515;SDS011;3799;47.184;8.538;2023-03-01T05:48:28;20.85;;;9.85;;
7515;SDS011;3799;47.184;8.538;2023-03-01T05:50:57;24.13;;;11.30;;
7515;SDS011;3799;47.184;8.538;2023-03-01T05:53:27;26.17;;;12.10;;
7515;SDS011;3799;47.184;8.538;2023-03-01T05:55:54;22.55;;;9.73;;
7515;SDS011;3799;47.184;8.538;2023-03-01T05:58:20;22.63;;;10.98;;
7515;SDS011;3799;47.184;8.538;2023-03-01T06:00:48;23.35;;;11.57;;
7515;SDS011;3799;47.184;8.538;2023-03-01T06:03:19;24.50;;;11.48;;
7515;SDS011;3799;47.184;8.538;2023-03-01T06:05:46;23.90;;;10.15;;
7515;SDS011;3799;47.184;8.538;2023-03-01T06:08:13;25.30;;;11.82;;
7515;SDS011;3799;47.184;8.538;2023-03-01T06:10:41;24.45;;;10.05;;
7515;SDS011;3799;47.184;8.538;2023-03-01T06:13:08;22.88;;;10.65;;
7515;SDS011;3799;47.184;8.538;2023-03-01T06:15:35;23.30;;;10.60;;
7515;SDS011;3799;47.184;8.538;2023-03-01T06:18:03;22.83;;;10.52;;
7515;SDS011;3799;47.184;8.538;2023-03-01T06:20:30;26.23;;;10.90;;
7515;SDS011;3799;47.184;8.538;2023-03-01T06:22:58;23.85;;;10.98;;
7515;SDS011;3799;47.184;8.538;2023-03-01T06:25:26;22.35;;;10.30;;
7515;SDS011;3799;47.184;8.538;2023-03-01T06:27:54;23.17;;;10.23;;
7515;SDS011;3799;47.184;8.538;2023-03-01T06:30:22;23.67;;;9.90;;
7515;SDS011;3799;47.184;8.538;2023-03-01T06:32:51;23.02;;;10.75;;
7515;SDS011;3799;47.184;8.538;2023-03-01T06:35:18;25.63;;;12.10;;
7515;SDS011;3799;47.184;8.538;2023-03-01T06:37:47;22.88;;;10.38;;
7515;SDS011;3799;47.184;8.538;2023-03-01T06:40:14;23.23;;;10.30;;
7515;SDS011;3799;47.184;8.538;2023-03-01T06:42:43;24.00;;;10.95;;
7515;SDS011;3799;47.184;8.538;2023-03-01T06:45:18;24.50;;;11.40;;
7515;SDS011;3799;47.184;8.538;2023-03-01T06:47:47;24.65;;;11.63;;
7515;SDS011;3799;47.184;8.538;2023-03-01T06:50:15;26.40;;;10.80;;
7515;SDS011;3799;47.184;8.538;2023-03-01T06:52:43;26.38;;;11.18;;
7515;SDS011;3799;47.184;8.538;2023-03-01T06:55:11;23.58;;;11.68;;
7515;SDS011;3799;47.184;8.538;2023-03-01T06:57:39;24.52;;;11.60;;
7515;SDS011;3799;47.184;8.538;2023-03-01T07:00:06;25.23;;;11.30;;
7515;SDS011;3799;47.184;8.538;2023-03-01T07:02:34;25.27;;;11.63;;
7515;SDS011;3799;47.184;8.538;2023-03-01T07:05:02;31.77;;;13.23;;
7515;SDS011;3799;47.184;8.538;2023-03-01T07:07:29;26.85;;;12.18;;
7515;SDS011;3799;47.184;8.538;2023-03-01T07:09:56;24.38;;;11.48;;
7515;SDS011;3799;47.184;8.538;2023-03-01T07:12:24;25.48;;;12.70;;
7515;SDS011;3799;47.184;8.538;2023-03-01T07:14:53;25.77;;;11.65;;
7515;SDS011;3799;47.184;8.538;2023-03-01T07:17:20;23.80;;;10.65;;
7515;SDS011;3799;47.184;8.538;2023-03-01T07:19:47;27.70;;;12.57;;
7515;SDS011;3799;47.184;8.538;2023-03-01T07:22:14;23.08;;;10.60;;
7515;SDS011;3799;47.184;8.538;2023-03-01T07:24:42;22.40;;;10.80;;
7515;SDS011;3799;47.184;8.538;2023-03-01T07:27:09;22.60;;;10.13;;
7515;SDS011;3799;47.184;8.538;2023-03-01T07:29:37;31.55;;;12.30;;
7515;SDS011;3799;47.184;8.538;2023-03-01T07:32:04;25.25;;;11.85;;
7515;SDS011;3799;47.184;8.538;2023-03-01T07:34:32;21.33;;;10.35;;
7515;SDS011;3799;47.184;8.538;2023-03-01T07:36:59;24.75;;;11.52;;
7515;SDS011;3799;47.184;8.538;2023-03-01T07:39:26;25.35;;;11.27;;
7515;SDS011;3799;47.184;8.538;2023-03-01T07:41:53;23.83;;;11.30;;
7515;SDS011;3799;47.184;8.538;2023-03-01T07:44:20;25.55;;;11.10;;
7515;SDS011;3799;47.184;8.538;2023-03-01T07:46:49;21.83;;;9.63;;
7515;SDS011;3799;47.184;8.538;2023-03-01T07:49:19;21.83;;;9.55;;
7515;SDS011;3799;47.184;8.538;2023-03-01T07:51:47;24.73;;;11.35;;
7515;SDS011;3799;47.184;8.538;2023-03-01T07:54:14;21.58;;;9.73;;
7515;SDS011;3799;47.184;8.538;2023-03-01T07:56:41;24.40;;;10.77;;
7515;SDS011;3799;47.184;8.538;2023-03-01T07:59:08;22.63;;;10.70;;
7515;SDS011;3799;47.184;8.538;2023-03-01T08:01:35;23.10;;;10.25;;
7515;SDS011;3799;47.184;8.538;2023-03-01T08:04:03;22.42;;;10.48;;
7515;SDS011;3799;47.184;8.538;2023-03-01T08:06:34;17.98;;;8.82;;
7515;SDS011;3799;47.184;8.538;2023-03-01T08:09:02;22.83;;;10.57;;
7515;SDS011;3799;47.184;8.538;2023-03-01T08:11:32;21.70;;;9.95;;
7515;SDS011;3799;47.184;8.538;2023-03-01T08:13:59;18.05;;;9.23;;
7515;SDS011;3799;47.184;8.538;2023-03-01T08:16:26;19.30;;;10.45;;
7515;SDS011;3799;47.184;8.538;2023-03-01T08:18:56;20.65;;;9.40;;
7515;SDS011;3799;47.184;8.538;2023-03-01T08:21:26;19.95;;;9.55;;
7515;SDS011;3799;47.184;8.538;2023-03-01T08:23:54;18.63;;;8.55;;
7515;SDS011;3799;47.184;8.538;2023-03-01T08:26:21;22.00;;;9.70;;
7515;SDS011;3799;47.184;8.538;2023-03-01T08:28:48;24.55;;;10.60;;
7515;SDS011;3799;47.184;8.538;2023-03-01T08:31:38;22.38;;;10.45;;
7515;SDS011;3799;47.184;8.538;2023-03-01T08:34:09;21.83;;;9.73;;
7515;SDS011;3799;47.184;8.538;2023-03-01T08:36:43;21.38;;;9.88;;
7515;SDS011;3799;47.184;8.538;2023-03-01T08:39:12;19.88;;;8.68;;
7515;SDS011;3799;47.184;8.538;2023-03-01T08:41:41;23.42;;;10.93;;
7515;SDS011;3799;47.184;8.538;2023-03-01T08:44:09;20.85;;;9.45;;
7515;SDS011;3799;47.184;8.538;2023-03-01T08:46:39;20.67;;;9.88;;
7515;SDS011;3799;47.184;8.538;2023-03-01T08:49:08;19.95;;;8.98;;
7515;SDS011;3799;47.184;8.538;2023-03-01T08:51:40;22.30;;;9.43;;
7515;SDS011;3799;47.184;8.538;2023-03-01T08:54:15;22.50;;;8.95;;
7515;SDS011;3799;47.184;8.538;2023-03-01T08:56:45;22.83;;;10.02;;
7515;SDS011;3799;47.184;8.538;2023-03-01T08:59:13;21.23;;;9.57;;
7515;SDS011;3799;47.184;8.538;2023-03-01T09:01:41;18.33;;;8.38;;
7515;SDS011;3799;47.184;8.538;2023-03-01T09:04:12;19.02;;;9.07;;
7515;SDS011;3799;47.184;8.538;2023-03-01T09:06:41;26.42;;;9.98;;
7515;SDS011;3799;47.184;8.538;2023-03-01T09:09:13;25.17;;;10.30;;
7515;SDS011;3799;47.184;8.538;2023-03-01T09:11:44;21.55;;;10.25;;
7515;SDS011;3799;47.184;8.538;2023-03-01T09:14:17;21.98;;;9.68;;
7515;SDS011;3799;47.184;8.538;2023-03-01T09:16:44;20.67;;;9.95;;
7515;SDS011;3799;47.184;8.538;2023-03-01T09:19:11;21.33;;;10.20;;
7515;SDS011;3799;47.184;8.538;2023-03-01T09:21:39;21.50;;;9.30;;
7515;SDS011;3799;47.184;8.538;2023-03-01T09:24:11;22.33;;;9.85;;
7515;SDS011;3799;47.184;8.538;2023-03-01T09:26:40;22.30;;;9.88;;
7515;SDS011;3799;47.184;8.538;2023-03-01T09:29:09;22.10;;;8.90;;
7515;SDS011;3799;47.184;8.538;2023-03-01T09:31:37;25.08;;;10.55;;
7515;SDS011;3799;47.184;8.538;2023-03-01T09:34:04;17.40;;;9.02;;
7515;SDS011;3799;47.184;8.538;2023-03-01T09:36:32;21.38;;;9.25;;
7515;SDS011;3799;47.184;8.538;2023-03-01T09:39:00;20.98;;;9.07;;
7515;SDS011;3799;47.184;8.538;2023-03-01T09:44:34;21.20;;;9.65;;
7515;SDS011;3799;47.184;8.538;2023-03-01T09:47:03;20.77;;;9.23;;
7515;SDS011;3799;47.184;8.538;2023-03-01T09:49:31;18.27;;;8.60;;
7515;SDS011;3799;47.184;8.538;2023-03-01T09:54:48;18.30;;;8.52;;
7515;SDS011;3799;47.184;8.538;2023-03-01T09:57:19;19.90;;;9.48;;
7515;SDS011;3799;47.184;8.538;2023-03-01T10:05:25;19.15;;;8.32;;
7515;SDS011;3799;47.184;8.538;2023-03-01T10:08:10;18.73;;;9.70;;
7515;SDS011;3799;47.184;8.538;2023-03-01T10:11:03;22.08;;;9.70;;
7515;SDS011;3799;47.184;8.538;2023-03-01T10:16:23;22.65;;;9.43;;
7515;SDS011;3799;47.184;8.538;2023-03-01T10:19:00;20.33;;;9.35;;
7515;SDS011;3799;47.184;8.538;2023-03-01T10:21:30;17.17;;;8.32;;
7515;SDS011;3799;47.184;8.538;2023-03-01T10:24:02;19.50;;;8.73;;
7515;SDS011;3799;47.184;8.538;2023-03-01T10:29:10;20.02;;;9.63;;
7515;SDS011;3799;47.184;8.538;2023-03-01T10:34:28;20.98;;;9.82;;
7515;SDS011;3799;47.184;8.538;2023-03-01T10:37:08;21.98;;;9.05;;
7515;SDS011;3799;47.184;8.538;2023-03-01T10:42:48;24.90;;;8.90;;
7515;SDS011;3799;47.184;8.538;2023-03-01T10:53:26;19.77;;;9.00;;
7515;SDS011;3799;47.184;8.538;2023-03-01T10:55:57;20.98;;;9.23;;
7515;SDS011;3799;47.184;8.538;2023-03-01T10:58:27;19.15;;;9.10;;
7515;SDS011;3799;47.184;8.538;2023-03-01T11:03:36;17.05;;;7.53;;
7515;SDS011;3799;47.184;8.538;2023-03-01T11:08:46;18.52;;;9.13;;
7515;SDS011;3799;47.184;8.538;2023-03-01T11:11:20;20.48;;;9.80;;
7515;SDS011;3799;47.184;8.538;2023-03-01T11:13:54;23.92;;;9.95;;
7515;SDS011;3799;47.184;8.538;2023-03-01T11:21:50;19.10;;;8.00;;
7515;SDS011;3799;47.184;8.538;2023-03-01T11:24:44;18.10;;;8.95;;
7515;SDS011;3799;47.184;8.538;2023-03-01T11:27:36;17.20;;;8.15;;
7515;SDS011;3799;47.184;8.538;2023-03-01T11:30:18;16.98;;;8.10;;
7515;SDS011;3799;47.184;8.538;2023-03-01T11:32:57;15.35;;;7.93;;
7515;SDS011;3799;47.184;8.538;2023-03-01T11:35:42;19.98;;;9.55;;
7515;SDS011;3799;47.184;8.538;2023-03-01T11:38:35;21.48;;;8.57;;
7515;SDS011;3799;47.184;8.538;2023-03-01T11:41:05;17.63;;;7.47;;
7515;SDS011;3799;47.184;8.538;2023-03-01T11:51:40;17.80;;;8.60;;
7515;SDS011;3799;47.184;8.538;2023-03-01T11:54:21;17.75;;;8.10;;
7515;SDS011;3799;47.184;8.538;2023-03-01T12:05:47;19.67;;;8.57;;
7515;SDS011;3799;47.184;8.538;2023-03-01T12:11:32;18.52;;;8.02;;
7515;SDS011;3799;47.184;8.538;2023-03-01T12:17:40;18.83;;;8.57;;
7515;SDS011;3799;47.184;8.538;2023-03-01T12:20:37;19.65;;;8.10;;
7515;SDS011;3799;47.184;8.538;2023-03-01T12:26:14;18.23;;;7.85;;
7515;SDS011;3799;47.184;8.538;2023-03-01T12:31:36;20.65;;;8.65;;
7515;SDS011;3799;47.184;8.538;2023-03-01T12:40:43;14.00;;;7.88;;
7515;SDS011;3799;47.184;8.538;2023-03-01T12:51:23;20.17;;;8.50;;
7515;SDS011;3799;47.184;8.538;2023-03-01T12:53:53;17.45;;;8.32;;
7515;SDS011;3799;47.184;8.538;2023-03-01T12:56:28;18.73;;;9.88;;
7515;SDS011;3799;47.184;8.538;2023-03-01T12:59:01;16.77;;;8.63;;
7515;SDS011;3799;47.184;8.538;2023-03-01T13:13:28;18.85;;;9.68;;
7515;SDS011;3799;47.184;8.538;2023-03-01T13:15:57;18.90;;;8.63;;
7515;SDS011;3799;47.184;8.538;2023-03-01T13:18:43;18.63;;;8.80;;
7515;SDS011;3799;47.184;8.538;2023-03-01T13:21:11;20.92;;;9.32;;
7515;SDS011;3799;47.184;8.538;2023-03-01T13:23:38;17.90;;;9.00;;
7515;SDS011;3799;47.184;8.538;2023-03-01T13:26:24;19.17;;;8.88;;
7515;SDS011;3799;47.184;8.538;2023-03-01T13:28:53;19.00;;;8.63;;
7515;SDS011;3799;47.184;8.538;2023-03-01T13:33:57;19.20;;;8.50;;
7515;SDS011;3799;47.184;8.538;2023-03-01T13:38:58;18.55;;;8.55;;
7515;SDS011;3799;47.184;8.538;2023-03-01T13:46:51;19.58;;;9.68;;
7515;SDS011;3799;47.184;8.538;2023-03-01T13:49:21;18.65;;;8.48;;
7515;SDS011;3799;47.184;8.538;2023-03-01T13:51:53;18.70;;;8.43;;
7515;SDS011;3799;47.184;8.538;2023-03-01T13:54:29;17.35;;;8.13;;
7515;SDS011;3799;47.184;8.538;2023-03-01T13:56:59;16.30;;;7.90;;
7515;SDS011;3799;47.184;8.538;2023-03-01T13:59:27;17.30;;;8.32;;
7515;SDS011;3799;47.184;8.538;2023-03-01T14:01:58;20.52;;;9.32;;
7515;SDS011;3799;47.184;8.538;2023-03-01T14:04:30;16.60;;;8.70;;
7515;SDS011;3799;47.184;8.538;2023-03-01T14:07:12;17.83;;;9.07;;
7515;SDS011;3799;47.184;8.538;2023-03-01T14:09:40;18.55;;;8.82;;
7515;SDS011;3799;47.184;8.538;2023-03-01T14:12:26;17.23;;;8.35;;
7515;SDS011;3799;47.184;8.538;2023-03-01T14:20:29;17.27;;;8.75;;
7515;SDS011;3799;47.184;8.538;2023-03-01T14:22:59;19.38;;;8.27;;
7515;SDS011;3799;47.184;8.538;2023-03-01T14:25:35;17.70;;;8.95;;
7515;SDS011;3799;47.184;8.538;2023-03-01T14:30:38;17.23;;;8.13;;
7515;SDS011;3799;47.184;8.538;2023-03-01T14:33:23;18.38;;;8.93;;
7515;SDS011;3799;47.184;8.538;2023-03-01T14:35:53;16.38;;;8.38;;
7515;SDS011;3799;47.184;8.538;2023-03-01T14:38:37;18.33;;;8.50;;
7515;SDS011;3799;47.184;8.538;2023-03-01T14:43:45;18.27;;;8.30;;
7515;SDS011;3799;47.184;8.538;2023-03-01T14:46:24;20.25;;;8.50;;
7515;SDS011;3799;47.184;8.538;2023-03-01T14:49:03;18.38;;;8.25;;
7515;SDS011;3799;47.184;8.538;2023-03-01T14:51:40;19.45;;;9.88;;
7515;SDS011;3799;47.184;8.538;2023-03-01T14:54:20;16.95;;;8.85;;
7515;SDS011;3799;47.184;8.538;2023-03-01T14:56:52;18.17;;;7.93;;
7515;SDS011;3799;47.184;8.538;2023-03-01T14:59:23;17.77;;;8.93;;
7515;SDS011;3799;47.184;8.538;2023-03-01T15:01:51;18.77;;;8.77;;
7515;SDS011;3799;47.184;8.538;2023-03-01T15:04:22;17.63;;;7.97;;
7515;SDS011;3799;47.184;8.538;2023-03-01T15:06:51;17.70;;;7.97;;
7515;SDS011;3799;47.184;8.538;2023-03-01T15:09:19;19.80;;;9.50;;
7515;SDS011;3799;47.184;8.538;2023-03-01T15:11:47;18.27;;;8.95;;
7515;SDS011;3799;47.184;8.538;2023-03-01T15:19:56;20.73;;;8.95;;
7515;SDS011;3799;47.184;8.538;2023-03-01T15:22:25;16.80;;;8.60;;
7515;SDS011;3799;47.184;8.538;2023-03-01T15:24:53;17.15;;;8.65;;
7515;SDS011;3799;47.184;8.538;2023-03-01T15:27:24;17.33;;;8.40;;
7515;SDS011;3799;47.184;8.538;2023-03-01T15:29:53;16.88;;;9.05;;
7515;SDS011;3799;47.184;8.538;2023-03-01T15:32:28;17.25;;;7.68;;
7515;SDS011;3799;47.184;8.538;2023-03-01T15:38:01;19.88;;;9.25;;
7515;SDS011;3799;47.184;8.538;2023-03-01T15:40:30;20.17;;;9.48;;
7515;SDS011;3799;47.184;8.538;2023-03-01T15:43:04;16.40;;;9.07;;
7515;SDS011;3799;47.184;8.538;2023-03-01T15:45:33;17.45;;;8.43;;
7515;SDS011;3799;47.184;8.538;2023-03-01T15:48:01;18.13;;;8.55;;
7515;SDS011;3799;47.184;8.538;2023-03-01T15:53:06;18.75;;;9.15;;
7515;SDS011;3799;47.184;8.538;2023-03-01T15:55:37;17.75;;;9.70;;
7515;SDS011;3799;47.184;8.538;2023-03-01T15:58:06;16.88;;;8.85;;
7515;SDS011;3799;47.184;8.538;2023-03-01T16:00:38;18.90;;;8.98;;
7515;SDS011;3799;47.184;8.538;2023-03-01T16:03:23;21.15;;;8.73;;
7515;SDS011;3799;47.184;8.538;2023-03-01T16:05:50;19.58;;;9.57;;
7515;SDS011;3799;47.184;8.538;2023-03-01T16:08:18;18.60;;;9.63;;
7515;SDS011;3799;47.184;8.538;2023-03-01T16:10:45;23.20;;;10.50;;
7515;SDS011;3799;47.184;8.538;2023-03-01T16:13:14;18.67;;;8.55;;
7515;SDS011;3799;47.184;8.538;2023-03-01T16:15:42;21.15;;;10.55;;
7515;SDS011;3799;47.184;8.538;2023-03-01T16:18:10;20.77;;;10.25;;
7515;SDS011;3799;47.184;8.538;2023-03-01T16:20:39;20.65;;;9.50;;
7515;SDS011;3799;47.184;8.538;2023-03-01T16:23:07;19.50;;;9.18;;
7515;SDS011;3799;47.184;8.538;2023-03-01T16:25:37;21.75;;;10.25;;
7515;SDS011;3799;47.184;8.538;2023-03-01T16:28:04;19.23;;;10.70;;
7515;SDS011;3799;47.184;8.538;2023-03-01T16:30:38;21.90;;;9.75;;
7515;SDS011;3799;47.184;8.538;2023-03-01T16:33:07;22.63;;;10.82;;
7515;SDS011;3799;47.184;8.538;2023-03-01T16:35:54;20.88;;;9.93;;
7515;SDS011;3799;47.184;8.538;2023-03-01T16:38:24;23.30;;;10.52;;
7515;SDS011;3799;47.184;8.538;2023-03-01T16:40:52;21.65;;;10.23;;
7515;SDS011;3799;47.184;8.538;2023-03-01T16:43:20;21.70;;;10.02;;
7515;SDS011;3799;47.184;8.538;2023-03-01T16:45:58;21.58;;;10.02;;
7515;SDS011;3799;47.184;8.538;2023-03-01T16:48:26;23.92;;;10.00;;
7515;SDS011;3799;47.184;8.538;2023-03-01T16:50:57;21.48;;;10.27;;
7515;SDS011;3799;47.184;8.538;2023-03-01T16:53:28;19.70;;;10.73;;
7515;SDS011;3799;47.184;8.538;2023-03-01T16:55:56;21.98;;;10.02;;
7515;SDS011;3799;47.184;8.538;2023-03-01T16:58:24;20.27;;;10.07;;
7515;SDS011;3799;47.184;8.538;2023-03-01T17:00:52;21.55;;;9.38;;
7515;SDS011;3799;47.184;8.538;2023-03-01T17:03:21;24.13;;;11.15;;
7515;SDS011;3799;47.184;8.538;2023-03-01T17:05:53;22.25;;;10.75;;
7515;SDS011;3799;47.184;8.538;2023-03-01T17:08:21;23.35;;;10.88;;
7515;SDS011;3799;47.184;8.538;2023-03-01T17:10:49;24.10;;;10.50;;
7515;SDS011;3799;47.184;8.538;2023-03-01T17:13:16;24.73;;;11.18;;
7515;SDS011;3799;47.184;8.538;2023-03-01T17:15:43;23.17;;;10.35;;
7515;SDS011;3799;47.184;8.538;2023-03-01T17:18:10;21.95;;;10.50;;
7515;SDS011;3799;47.184;8.538;2023-03-01T17:20:38;21.48;;;10.70;;
7515;SDS011;3799;47.184;8.538;2023-03-01T17:23:05;21.50;;;10.25;;
7515;SDS011;3799;47.184;8.538;2023-03-01T17:25:32;22.05;;;10.77;;
7515;SDS011;3799;47.184;8.538;2023-03-01T17:27:59;25.90;;;10.48;;
7515;SDS011;3799;47.184;8.538;2023-03-01T17:30:26;23.15;;;9.88;;
7515;SDS011;3799;47.184;8.538;2023-03-01T17:32:54;22.42;;;10.05;;
7515;SDS011;3799;47.184;8.538;2023-03-01T17:35:22;21.92;;;10.55;;